sensor_id;sensor_type;location;lat;lon;timestamp;temperature;humidity
18392;DHT22;9322;50.932;5.318;2023-05-14T00:01:28;13.60;1.40
18392;DHT22;9322;50.932;5.318;2023-05-14T00:03:53;13.50;1.40
18392;DHT22;9322;50.932;5.318;2023-05-14T00:06:19;13.50;1.40
18392;DHT22;9322;50.932;5.318;2023-05-14T00:08:45;13.40;1.40
18392;DHT22;9322;50.932;5.318;2023-05-14T00:11:10;13.30;1.40
18392;DHT22;9322;50.932;5.318;2023-05-14T00:13:36;13.30;1.40
18392;DHT22;9322;50.932;5.318;2023-05-14T00:16:02;13.30;1.40
18392;DHT22;9322;50.932;5.318;2023-05-14T00:18:28;13.30;1.40
18392;DHT22;9322;50.932;5.318;2023-05-14T00:20:54;13.40;1.40
18392;DHT22;9322;50.932;5.318;2023-05-14T00:23:20;13.30;1.40
18392;DHT22;9322;50.932;5.318;2023-05-14T00:25:46;13.30;1.40
18392;DHT22;9322;50.932;5.318;2023-05-14T00:28:12;13.10;1.40
18392;DHT22;9322;50.932;5.318;2023-05-14T00:30:37;13.20;1.40
18392;DHT22;9322;50.932;5.318;2023-05-14T00:33:05;13.10;1.40
18392;DHT22;9322;50.932;5.318;2023-05-14T00:35:30;13.10;1.40
18392;DHT22;9322;50.932;5.318;2023-05-14T00:37:56;13.00;1.40
18392;DHT22;9322;50.932;5.318;2023-05-14T00:40:26;13.00;1.40
18392;DHT22;9322;50.932;5.318;2023-05-14T00:42:52;13.00;1.40
18392;DHT22;9322;50.932;5.318;2023-05-14T00:45:19;12.90;1.40
18392;DHT22;9322;50.932;5.318;2023-05-14T00:47:45;12.90;1.40
18392;DHT22;9322;50.932;5.318;2023-05-14T00:50:11;12.80;1.40
18392;DHT22;9322;50.932;5.318;2023-05-14T00:52:38;12.70;1.40
18392;DHT22;9322;50.932;5.318;2023-05-14T00:55:05;12.70;1.40
18392;DHT22;9322;50.932;5.318;2023-05-14T00:57:32;12.60;1.40
18392;DHT22;9322;50.932;5.318;2023-05-14T00:59:58;12.60;1.40
18392;DHT22;9322;50.932;5.318;2023-05-14T01:02:24;12.50;1.40
18392;DHT22;9322;50.932;5.318;2023-05-14T01:04:51;12.50;1.40
18392;DHT22;9322;50.932;5.318;2023-05-14T01:07:38;12.50;1.40
18392;DHT22;9322;50.932;5.318;2023-05-14T01:10:27;12.50;1.40
18392;DHT22;9322;50.932;5.318;2023-05-14T01:13:03;12.50;1.40
18392;DHT22;9322;50.932;5.318;2023-05-14T01:15:33;12.50;1.40
18392;DHT22;9322;50.932;5.318;2023-05-14T01:18:09;12.50;1.40
18392;DHT22;9322;50.932;5.318;2023-05-14T01:20:35;12.50;1.40
18392;DHT22;9322;50.932;5.318;2023-05-14T01:23:02;12.50;1.40
18392;DHT22;9322;50.932;5.318;2023-05-14T01:25:29;12.50;1.40
18392;DHT22;9322;50.932;5.318;2023-05-14T01:32:58;12.30;1.40
18392;DHT22;9322;50.932;5.318;2023-05-14T01:35:28;12.30;1.40
18392;DHT22;9322;50.932;5.318;2023-05-14T01:37:57;12.40;1.40
18392;DHT22;9322;50.932;5.318;2023-05-14T01:40:24;12.30;1.40
18392;DHT22;9322;50.932;5.318;2023-05-14T01:42:51;12.30;1.40
18392;DHT22;9322;50.932;5.318;2023-05-14T01:45:20;12.30;1.40
18392;DHT22;9322;50.932;5.318;2023-05-14T01:47:46;12.20;1.40
18392;DHT22;9322;50.932;5.318;2023-05-14T01:50:11;12.20;1.40
18392;DHT22;9322;50.932;5.318;2023-05-14T01:52:37;12.10;1.40
18392;DHT22;9322;50.932;5.318;2023-05-14T01:55:03;12.10;1.40
18392;DHT22;9322;50.932;5.318;2023-05-14T01:57:30;12.00;1.40
18392;DHT22;9322;50.932;5.318;2023-05-14T01:59:56;12.10;1.40
18392;DHT22;9322;50.932;5.318;2023-05-14T02:02:22;12.10;1.40
18392;DHT22;9322;50.932;5.318;2023-05-14T02:04:47;12.00;1.40
18392;DHT22;9322;50.932;5.318;2023-05-14T02:07:13;11.90;1.40
18392;DHT22;9322;50.932;5.318;2023-05-14T02:09:39;11.90;1.40
18392;DHT22;9322;50.932;5.318;2023-05-14T02:12:06;11.80;1.40
18392;DHT22;9322;50.932;5.318;2023-05-14T02:14:32;11.80;1.40
18392;DHT22;9322;50.932;5.318;2023-05-14T02:16:58;11.70;1.40
18392;DHT22;9322;50.932;5.318;2023-05-14T02:19:24;11.70;1.40
18392;DHT22;9322;50.932;5.318;2023-05-14T02:21:49;11.50;1.40
18392;DHT22;9322;50.932;5.318;2023-05-14T02:24:15;11.50;1.40
18392;DHT22;9322;50.932;5.318;2023-05-14T02:26:41;11.50;1.40
18392;DHT22;9322;50.932;5.318;2023-05-14T02:29:07;11.50;1.40
18392;DHT22;9322;50.932;5.318;2023-05-14T02:31:33;11.50;1.40
18392;DHT22;9322;50.932;5.318;2023-05-14T02:34:00;11.40;1.40
18392;DHT22;9322;50.932;5.318;2023-05-14T02:36:26;11.40;1.40
18392;DHT22;9322;50.932;5.318;2023-05-14T02:38:52;11.40;1.40
18392;DHT22;9322;50.932;5.318;2023-05-14T02:41:17;11.30;1.40
18392;DHT22;9322;50.932;5.318;2023-05-14T02:43:43;11.40;1.40
18392;DHT22;9322;50.932;5.318;2023-05-14T02:46:09;11.30;1.40
18392;DHT22;9322;50.932;5.318;2023-05-14T02:48:34;11.30;1.40
18392;DHT22;9322;50.932;5.318;2023-05-14T02:51:01;11.20;1.40
18392;DHT22;9322;50.932;5.318;2023-05-14T02:53:27;11.20;1.40
18392;DHT22;9322;50.932;5.318;2023-05-14T02:55:52;11.20;1.40
18392;DHT22;9322;50.932;5.318;2023-05-14T02:58:18;11.20;1.40
18392;DHT22;9322;50.932;5.318;2023-05-14T03:00:44;11.20;1.40
18392;DHT22;9322;50.932;5.318;2023-05-14T03:03:10;11.10;1.40
18392;DHT22;9322;50.932;5.318;2023-05-14T03:05:35;11.10;1.40
18392;DHT22;9322;50.932;5.318;2023-05-14T03:08:01;11.10;1.40
18392;DHT22;9322;50.932;5.318;2023-05-14T03:10:27;11.00;1.40
18392;DHT22;9322;50.932;5.318;2023-05-14T03:12:52;11.00;1.40
18392;DHT22;9322;50.932;5.318;2023-05-14T03:15:18;11.00;1.40
18392;DHT22;9322;50.932;5.318;2023-05-14T03:17:44;11.00;1.40
18392;DHT22;9322;50.932;5.318;2023-05-14T03:20:11;11.00;1.40
18392;DHT22;9322;50.932;5.318;2023-05-14T03:22:36;11.00;1.40
18392;DHT22;9322;50.932;5.318;2023-05-14T03:25:02;11.00;1.40
18392;DHT22;9322;50.932;5.318;2023-05-14T03:27:28;11.00;1.40
18392;DHT22;9322;50.932;5.318;2023-05-14T03:29:54;11.10;1.40
18392;DHT22;9322;50.932;5.318;2023-05-14T03:32:19;11.10;1.40
18392;DHT22;9322;50.932;5.318;2023-05-14T03:34:45;11.10;1.40
18392;DHT22;9322;50.932;5.318;2023-05-14T03:37:11;11.00;1.40
18392;DHT22;9322;50.932;5.318;2023-05-14T03:39:37;11.00;1.40
18392;DHT22;9322;50.932;5.318;2023-05-14T03:42:03;11.00;1.40
18392;DHT22;9322;50.932;5.318;2023-05-14T03:44:28;10.90;1.40
18392;DHT22;9322;50.932;5.318;2023-05-14T03:46:54;11.00;1.40
18392;DHT22;9322;50.932;5.318;2023-05-14T03:49:20;11.00;1.40
18392;DHT22;9322;50.932;5.318;2023-05-14T03:51:46;10.90;1.40
18392;DHT22;9322;50.932;5.318;2023-05-14T03:54:11;10.90;1.40
18392;DHT22;9322;50.932;5.318;2023-05-14T03:56:37;10.90;1.40
18392;DHT22;9322;50.932;5.318;2023-05-14T03:59:03;10.90;1.40
18392;DHT22;9322;50.932;5.318;2023-05-14T04:01:28;10.80;1.40
18392;DHT22;9322;50.932;5.318;2023-05-14T04:03:54;10.90;1.40
18392;DHT22;9322;50.932;5.318;2023-05-14T04:06:20;10.90;1.40
18392;DHT22;9322;50.932;5.318;2023-05-14T04:08:45;10.90;1.40
18392;DHT22;9322;50.932;5.318;2023-05-14T04:11:11;11.00;1.40
18392;DHT22;9322;50.932;5.318;2023-05-14T04:13:37;11.00;1.40
18392;DHT22;9322;50.932;5.318;2023-05-14T04:16:02;11.00;1.40
18392;DHT22;9322;50.932;5.318;2023-05-14T04:18:28;11.00;1.40
18392;DHT22;9322;50.932;5.318;2023-05-14T04:20:54;11.00;1.40
18392;DHT22;9322;50.932;5.318;2023-05-14T04:23:20;11.10;1.40
18392;DHT22;9322;50.932;5.318;2023-05-14T04:25:46;11.20;1.40
18392;DHT22;9322;50.932;5.318;2023-05-14T04:28:12;11.30;1.40
18392;DHT22;9322;50.932;5.318;2023-05-14T04:30:37;11.30;1.40
18392;DHT22;9322;50.932;5.318;2023-05-14T04:33:03;11.50;1.40
18392;DHT22;9322;50.932;5.318;2023-05-14T04:35:29;11.50;1.40
18392;DHT22;9322;50.932;5.318;2023-05-14T04:37:54;11.50;1.40
18392;DHT22;9322;50.932;5.318;2023-05-14T04:40:20;11.60;1.40
18392;DHT22;9322;50.932;5.318;2023-05-14T04:42:47;11.70;1.40
18392;DHT22;9322;50.932;5.318;2023-05-14T04:45:12;11.80;1.40
18392;DHT22;9322;50.932;5.318;2023-05-14T04:47:39;12.00;1.40
18392;DHT22;9322;50.932;5.318;2023-05-14T04:50:05;12.20;1.40
18392;DHT22;9322;50.932;5.318;2023-05-14T04:52:31;12.20;1.40
18392;DHT22;9322;50.932;5.318;2023-05-14T04:54:57;12.40;1.40
18392;DHT22;9322;50.932;5.318;2023-05-14T04:57:23;12.50;1.40
18392;DHT22;9322;50.932;5.318;2023-05-14T04:59:48;12.70;1.40
18392;DHT22;9322;50.932;5.318;2023-05-14T05:02:14;13.00;1.40
18392;DHT22;9322;50.932;5.318;2023-05-14T05:04:40;13.50;1.40
18392;DHT22;9322;50.932;5.318;2023-05-14T05:07:06;13.90;1.40
18392;DHT22;9322;50.932;5.318;2023-05-14T05:09:31;14.40;1.40
18392;DHT22;9322;50.932;5.318;2023-05-14T05:11:57;15.00;1.40
18392;DHT22;9322;50.932;5.318;2023-05-14T05:14:23;15.30;1.40
18392;DHT22;9322;50.932;5.318;2023-05-14T05:16:50;15.60;1.40
18392;DHT22;9322;50.932;5.318;2023-05-14T05:19:15;16.10;1.40
18392;DHT22;9322;50.932;5.318;2023-05-14T05:21:41;16.40;1.40
18392;DHT22;9322;50.932;5.318;2023-05-14T05:24:07;16.60;1.40
18392;DHT22;9322;50.932;5.318;2023-05-14T05:26:33;17.10;1.40
18392;DHT22;9322;50.932;5.318;2023-05-14T05:29:02;17.40;1.40
18392;DHT22;9322;50.932;5.318;2023-05-14T05:31:28;17.40;1.40
18392;DHT22;9322;50.932;5.318;2023-05-14T05:33:54;17.60;1.40
18392;DHT22;9322;50.932;5.318;2023-05-14T05:36:20;17.90;1.40
18392;DHT22;9322;50.932;5.318;2023-05-14T05:38:46;18.40;1.40
18392;DHT22;9322;50.932;5.318;2023-05-14T05:41:12;18.80;1.40
18392;DHT22;9322;50.932;5.318;2023-05-14T05:43:37;19.20;1.40
18392;DHT22;9322;50.932;5.318;2023-05-14T05:46:03;19.20;1.40
18392;DHT22;9322;50.932;5.318;2023-05-14T05:48:29;19.70;1.40
18392;DHT22;9322;50.932;5.318;2023-05-14T05:50:55;20.20;1.40
18392;DHT22;9322;50.932;5.318;2023-05-14T05:53:21;20.60;1.40
18392;DHT22;9322;50.932;5.318;2023-05-14T05:55:46;20.30;1.40
18392;DHT22;9322;50.932;5.318;2023-05-14T05:58:12;20.60;1.40
18392;DHT22;9322;50.932;5.318;2023-05-14T06:00:40;20.90;1.40
18392;DHT22;9322;50.932;5.318;2023-05-14T06:03:06;20.90;1.40
18392;DHT22;9322;50.932;5.318;2023-05-14T06:05:32;20.90;1.40
18392;DHT22;9322;50.932;5.318;2023-05-14T06:07:57;20.40;1.40
18392;DHT22;9322;50.932;5.318;2023-05-14T06:10:23;21.00;1.40
18392;DHT22;9322;50.932;5.318;2023-05-14T06:12:49;20.90;1.40
18392;DHT22;9322;50.932;5.318;2023-05-14T06:15:14;20.50;1.40
18392;DHT22;9322;50.932;5.318;2023-05-14T06:17:40;20.60;1.40
18392;DHT22;9322;50.932;5.318;2023-05-14T06:20:06;20.40;1.40
18392;DHT22;9322;50.932;5.318;2023-05-14T06:22:33;20.50;1.40
18392;DHT22;9322;50.932;5.318;2023-05-14T06:24:59;20.60;1.40
18392;DHT22;9322;50.932;5.318;2023-05-14T06:27:25;20.70;1.40
18392;DHT22;9322;50.932;5.318;2023-05-14T06:29:50;20.70;1.40
18392;DHT22;9322;50.932;5.318;2023-05-14T06:32:16;21.10;1.40
18392;DHT22;9322;50.932;5.318;2023-05-14T06:34:42;21.50;1.40
18392;DHT22;9322;50.932;5.318;2023-05-14T06:37:09;22.00;1.40
18392;DHT22;9322;50.932;5.318;2023-05-14T06:39:36;22.20;1.40
18392;DHT22;9322;50.932;5.318;2023-05-14T06:42:02;21.70;1.40
18392;DHT22;9322;50.932;5.318;2023-05-14T06:44:28;22.60;1.40
18392;DHT22;9322;50.932;5.318;2023-05-14T06:46:54;23.10;1.40
18392;DHT22;9322;50.932;5.318;2023-05-14T06:49:19;23.20;1.40
18392;DHT22;9322;50.932;5.318;2023-05-14T06:51:46;24.40;1.40
18392;DHT22;9322;50.932;5.318;2023-05-14T06:54:12;24.50;1.40
18392;DHT22;9322;50.932;5.318;2023-05-14T06:56:37;25.90;1.40
18392;DHT22;9322;50.932;5.318;2023-05-14T06:59:03;26.30;1.40
18392;DHT22;9322;50.932;5.318;2023-05-14T07:01:29;26.90;1.40
18392;DHT22;9322;50.932;5.318;2023-05-14T07:03:55;27.70;1.40
18392;DHT22;9322;50.932;5.318;2023-05-14T07:06:21;27.50;1.40
18392;DHT22;9322;50.932;5.318;2023-05-14T07:08:47;26.80;1.40
18392;DHT22;9322;50.932;5.318;2023-05-14T07:11:13;27.30;1.40
18392;DHT22;9322;50.932;5.318;2023-05-14T07:13:40;28.00;1.40
18392;DHT22;9322;50.932;5.318;2023-05-14T07:16:06;26.10;1.40
18392;DHT22;9322;50.932;5.318;2023-05-14T07:18:34;24.50;1.40
18392;DHT22;9322;50.932;5.318;2023-05-14T07:20:59;24.70;1.40
18392;DHT22;9322;50.932;5.318;2023-05-14T07:23:25;25.20;1.40
18392;DHT22;9322;50.932;5.318;2023-05-14T07:25:51;24.50;1.40
18392;DHT22;9322;50.932;5.318;2023-05-14T07:28:16;25.20;1.40
18392;DHT22;9322;50.932;5.318;2023-05-14T07:30:42;26.60;1.40
18392;DHT22;9322;50.932;5.318;2023-05-14T07:33:08;26.90;1.40
18392;DHT22;9322;50.932;5.318;2023-05-14T07:35:33;26.20;1.40
18392;DHT22;9322;50.932;5.318;2023-05-14T07:37:59;25.30;1.40
18392;DHT22;9322;50.932;5.318;2023-05-14T07:40:25;24.60;1.40
18392;DHT22;9322;50.932;5.318;2023-05-14T07:42:51;24.50;1.40
18392;DHT22;9322;50.932;5.318;2023-05-14T07:45:17;24.60;1.40
18392;DHT22;9322;50.932;5.318;2023-05-14T07:47:43;24.40;1.40
18392;DHT22;9322;50.932;5.318;2023-05-14T07:50:09;24.00;1.40
18392;DHT22;9322;50.932;5.318;2023-05-14T07:52:35;23.30;1.40
18392;DHT22;9322;50.932;5.318;2023-05-14T07:55:02;23.50;1.40
18392;DHT22;9322;50.932;5.318;2023-05-14T07:57:28;24.50;1.40
18392;DHT22;9322;50.932;5.318;2023-05-14T07:59:55;25.70;1.40
18392;DHT22;9322;50.932;5.318;2023-05-14T08:02:20;26.00;1.40
18392;DHT22;9322;50.932;5.318;2023-05-14T08:04:46;26.20;1.40
18392;DHT22;9322;50.932;5.318;2023-05-14T08:07:12;26.10;1.40
18392;DHT22;9322;50.932;5.318;2023-05-14T08:09:38;25.10;1.40
18392;DHT22;9322;50.932;5.318;2023-05-14T08:12:04;25.10;1.40
18392;DHT22;9322;50.932;5.318;2023-05-14T08:14:30;26.00;1.40
18392;DHT22;9322;50.932;5.318;2023-05-14T08:16:56;25.70;1.40
18392;DHT22;9322;50.932;5.318;2023-05-14T08:19:22;26.00;1.40
18392;DHT22;9322;50.932;5.318;2023-05-14T08:21:49;25.80;1.40
18392;DHT22;9322;50.932;5.318;2023-05-14T08:24:15;26.40;1.40
18392;DHT22;9322;50.932;5.318;2023-05-14T08:26:41;26.90;1.40
18392;DHT22;9322;50.932;5.318;2023-05-14T08:29:07;28.50;1.40
18392;DHT22;9322;50.932;5.318;2023-05-14T08:31:33;29.60;1.40
18392;DHT22;9322;50.932;5.318;2023-05-14T08:33:59;29.80;1.40
18392;DHT22;9322;50.932;5.318;2023-05-14T08:36:25;30.30;1.40
18392;DHT22;9322;50.932;5.318;2023-05-14T08:38:51;30.10;1.40
18392;DHT22;9322;50.932;5.318;2023-05-14T08:41:17;31.50;1.40
18392;DHT22;9322;50.932;5.318;2023-05-14T08:44:19;32.40;1.40
18392;DHT22;9322;50.932;5.318;2023-05-14T08:46:48;30.50;1.40
18392;DHT22;9322;50.932;5.318;2023-05-14T08:49:42;29.70;1.40
18392;DHT22;9322;50.932;5.318;2023-05-14T08:52:08;30.60;1.40
18392;DHT22;9322;50.932;5.318;2023-05-14T08:54:34;32.60;1.40
18392;DHT22;9322;50.932;5.318;2023-05-14T08:57:02;33.10;1.40
18392;DHT22;9322;50.932;5.318;2023-05-14T08:59:28;33.30;1.40
18392;DHT22;9322;50.932;5.318;2023-05-14T09:01:55;32.80;1.40
18392;DHT22;9322;50.932;5.318;2023-05-14T09:04:22;32.50;1.40
18392;DHT22;9322;50.932;5.318;2023-05-14T09:06:51;33.00;1.40
18392;DHT22;9322;50.932;5.318;2023-05-14T09:09:17;31.40;1.40
18392;DHT22;9322;50.932;5.318;2023-05-14T09:11:46;32.70;1.40
18392;DHT22;9322;50.932;5.318;2023-05-14T09:14:12;33.80;1.40
18392;DHT22;9322;50.932;5.318;2023-05-14T09:16:39;33.00;1.40
18392;DHT22;9322;50.932;5.318;2023-05-14T09:19:07;32.50;1.40
18392;DHT22;9322;50.932;5.318;2023-05-14T09:21:33;32.80;1.40
18392;DHT22;9322;50.932;5.318;2023-05-14T09:23:59;33.20;1.40
18392;DHT22;9322;50.932;5.318;2023-05-14T09:26:26;34.20;1.40
18392;DHT22;9322;50.932;5.318;2023-05-14T09:28:57;33.80;1.40
18392;DHT22;9322;50.932;5.318;2023-05-14T09:31:29;33.90;1.40
18392;DHT22;9322;50.932;5.318;2023-05-14T09:33:56;35.10;1.40
18392;DHT22;9322;50.932;5.318;2023-05-14T09:36:22;34.10;1.40
18392;DHT22;9322;50.932;5.318;2023-05-14T09:38:49;32.80;1.40
18392;DHT22;9322;50.932;5.318;2023-05-14T09:41:15;31.10;1.40
18392;DHT22;9322;50.932;5.318;2023-05-14T09:43:41;30.90;1.40
18392;DHT22;9322;50.932;5.318;2023-05-14T09:46:07;31.10;1.40
18392;DHT22;9322;50.932;5.318;2023-05-14T09:48:33;31.90;1.40
18392;DHT22;9322;50.932;5.318;2023-05-14T09:50:58;33.40;1.40
18392;DHT22;9322;50.932;5.318;2023-05-14T09:53:24;33.80;1.40
18392;DHT22;9322;50.932;5.318;2023-05-14T09:55:50;33.50;1.40
18392;DHT22;9322;50.932;5.318;2023-05-14T09:58:16;33.60;1.40
18392;DHT22;9322;50.932;5.318;2023-05-14T10:00:45;33.50;1.40
18392;DHT22;9322;50.932;5.318;2023-05-14T10:03:13;34.00;1.40
18392;DHT22;9322;50.932;5.318;2023-05-14T10:05:42;34.40;1.40
18392;DHT22;9322;50.932;5.318;2023-05-14T10:10:42;33.50;1.40
18392;DHT22;9322;50.932;5.318;2023-05-14T10:13:13;34.80;1.40
18392;DHT22;9322;50.932;5.318;2023-05-14T10:15:50;35.10;1.40
18392;DHT22;9322;50.932;5.318;2023-05-14T10:18:18;33.20;1.40
18392;DHT22;9322;50.932;5.318;2023-05-14T10:20:51;34.30;1.40
18392;DHT22;9322;50.932;5.318;2023-05-14T10:23:17;34.60;1.40
18392;DHT22;9322;50.932;5.318;2023-05-14T10:25:44;32.70;1.40
18392;DHT22;9322;50.932;5.318;2023-05-14T10:28:10;33.70;1.40
18392;DHT22;9322;50.932;5.318;2023-05-14T10:30:43;35.00;1.40
18392;DHT22;9322;50.932;5.318;2023-05-14T10:33:12;35.50;1.40
18392;DHT22;9322;50.932;5.318;2023-05-14T10:36:08;34.00;1.40
18392;DHT22;9322;50.932;5.318;2023-05-14T10:38:36;34.30;1.40
18392;DHT22;9322;50.932;5.318;2023-05-14T10:41:02;35.20;1.40
18392;DHT22;9322;50.932;5.318;2023-05-14T10:43:30;34.60;1.40
18392;DHT22;9322;50.932;5.318;2023-05-14T10:45:57;32.00;1.40
18392;DHT22;9322;50.932;5.318;2023-05-14T10:48:23;32.20;1.40
18392;DHT22;9322;50.932;5.318;2023-05-14T10:50:50;33.20;1.40
18392;DHT22;9322;50.932;5.318;2023-05-14T10:53:17;33.90;1.40
18392;DHT22;9322;50.932;5.318;2023-05-14T10:55:43;33.70;1.40
18392;DHT22;9322;50.932;5.318;2023-05-14T10:58:10;34.40;1.40
18392;DHT22;9322;50.932;5.318;2023-05-14T11:00:37;35.50;1.40
18392;DHT22;9322;50.932;5.318;2023-05-14T11:03:06;35.00;1.40
18392;DHT22;9322;50.932;5.318;2023-05-14T11:05:32;36.10;1.40
18392;DHT22;9322;50.932;5.318;2023-05-14T11:08:04;35.60;1.40
18392;DHT22;9322;50.932;5.318;2023-05-14T11:10:31;34.50;1.40
18392;DHT22;9322;50.932;5.318;2023-05-14T11:12:57;34.40;1.40
18392;DHT22;9322;50.932;5.318;2023-05-14T11:15:25;33.30;1.40
18392;DHT22;9322;50.932;5.318;2023-05-14T11:17:51;34.00;1.40
18392;DHT22;9322;50.932;5.318;2023-05-14T11:20:18;34.50;1.40
18392;DHT22;9322;50.932;5.318;2023-05-14T11:22:46;35.90;1.40
18392;DHT22;9322;50.932;5.318;2023-05-14T11:25:13;35.30;1.40
18392;DHT22;9322;50.932;5.318;2023-05-14T11:27:40;36.20;1.40
18392;DHT22;9322;50.932;5.318;2023-05-14T11:30:17;37.10;1.40
18392;DHT22;9322;50.932;5.318;2023-05-14T11:32:44;36.60;1.40
18392;DHT22;9322;50.932;5.318;2023-05-14T11:35:11;36.50;1.40
18392;DHT22;9322;50.932;5.318;2023-05-14T11:37:37;35.00;1.40
18392;DHT22;9322;50.932;5.318;2023-05-14T11:40:07;33.50;1.40
18392;DHT22;9322;50.932;5.318;2023-05-14T11:42:35;31.30;1.40
18392;DHT22;9322;50.932;5.318;2023-05-14T11:45:01;31.50;1.40
18392;DHT22;9322;50.932;5.318;2023-05-14T11:47:28;32.10;1.40
18392;DHT22;9322;50.932;5.318;2023-05-14T11:49:55;32.40;1.40
18392;DHT22;9322;50.932;5.318;2023-05-14T11:52:20;31.40;1.40
18392;DHT22;9322;50.932;5.318;2023-05-14T11:54:46;31.40;1.40
18392;DHT22;9322;50.932;5.318;2023-05-14T11:57:18;31.30;1.40
18392;DHT22;9322;50.932;5.318;2023-05-14T11:59:44;31.50;1.40
18392;DHT22;9322;50.932;5.318;2023-05-14T12:02:14;31.70;1.40
18392;DHT22;9322;50.932;5.318;2023-05-14T12:04:42;32.20;1.40
18392;DHT22;9322;50.932;5.318;2023-05-14T12:07:13;32.10;1.40
18392;DHT22;9322;50.932;5.318;2023-05-14T12:09:41;31.90;1.40
18392;DHT22;9322;50.932;5.318;2023-05-14T12:12:11;31.50;1.40
18392;DHT22;9322;50.932;5.318;2023-05-14T12:14:39;31.00;1.40
18392;DHT22;9322;50.932;5.318;2023-05-14T12:17:14;30.30;1.40
18392;DHT22;9322;50.932;5.318;2023-05-14T12:19:41;30.30;1.40
18392;DHT22;9322;50.932;5.318;2023-05-14T12:22:08;30.10;1.40
18392;DHT22;9322;50.932;5.318;2023-05-14T12:24:34;29.90;1.40
18392;DHT22;9322;50.932;5.318;2023-05-14T12:27:01;29.70;1.40
18392;DHT22;9322;50.932;5.318;2023-05-14T12:29:27;28.90;1.40
18392;DHT22;9322;50.932;5.318;2023-05-14T12:31:56;28.70;1.40
18392;DHT22;9322;50.932;5.318;2023-05-14T12:34:22;28.00;1.40
18392;DHT22;9322;50.932;5.318;2023-05-14T12:36:48;27.50;1.40
18392;DHT22;9322;50.932;5.318;2023-05-14T12:39:14;26.50;1.40
18392;DHT22;9322;50.932;5.318;2023-05-14T12:41:40;26.30;1.40
18392;DHT22;9322;50.932;5.318;2023-05-14T12:44:05;25.60;1.40
18392;DHT22;9322;50.932;5.318;2023-05-14T12:46:31;25.40;1.40
18392;DHT22;9322;50.932;5.318;2023-05-14T12:48:57;25.40;1.40
18392;DHT22;9322;50.932;5.318;2023-05-14T12:51:23;25.20;1.40
18392;DHT22;9322;50.932;5.318;2023-05-14T12:53:49;25.20;1.40
18392;DHT22;9322;50.932;5.318;2023-05-14T12:56:16;25.20;1.40
18392;DHT22;9322;50.932;5.318;2023-05-14T12:58:42;25.20;1.40
18392;DHT22;9322;50.932;5.318;2023-05-14T13:01:08;24.90;1.40
18392;DHT22;9322;50.932;5.318;2023-05-14T13:03:33;25.10;1.40
18392;DHT22;9322;50.932;5.318;2023-05-14T13:05:59;25.50;1.40
18392;DHT22;9322;50.932;5.318;2023-05-14T13:08:25;26.30;1.40
18392;DHT22;9322;50.932;5.318;2023-05-14T13:10:55;26.50;1.40
18392;DHT22;9322;50.932;5.318;2023-05-14T13:13:22;26.00;1.40
18392;DHT22;9322;50.932;5.318;2023-05-14T13:15:47;26.30;1.40
18392;DHT22;9322;50.932;5.318;2023-05-14T13:18:14;26.40;1.40
18392;DHT22;9322;50.932;5.318;2023-05-14T13:20:40;26.30;1.40
18392;DHT22;9322;50.932;5.318;2023-05-14T13:23:06;26.50;1.40
18392;DHT22;9322;50.932;5.318;2023-05-14T13:25:32;26.30;1.40
18392;DHT22;9322;50.932;5.318;2023-05-14T13:27:58;26.10;1.40
18392;DHT22;9322;50.932;5.318;2023-05-14T13:30:24;25.50;1.40
18392;DHT22;9322;50.932;5.318;2023-05-14T13:32:50;25.00;1.40
18392;DHT22;9322;50.932;5.318;2023-05-14T13:35:15;25.10;1.40
18392;DHT22;9322;50.932;5.318;2023-05-14T13:37:45;24.50;1.40
18392;DHT22;9322;50.932;5.318;2023-05-14T13:40:11;24.60;1.40
18392;DHT22;9322;50.932;5.318;2023-05-14T13:42:37;24.50;1.40
18392;DHT22;9322;50.932;5.318;2023-05-14T13:45:07;24.30;1.40
18392;DHT22;9322;50.932;5.318;2023-05-14T13:47:32;24.10;1.40
18392;DHT22;9322;50.932;5.318;2023-05-14T13:49:58;23.90;1.40
18392;DHT22;9322;50.932;5.318;2023-05-14T13:52:25;24.40;1.40
18392;DHT22;9322;50.932;5.318;2023-05-14T13:54:51;24.70;1.40
18392;DHT22;9322;50.932;5.318;2023-05-14T13:57:18;24.60;1.40
18392;DHT22;9322;50.932;5.318;2023-05-14T13:59:45;24.60;1.40
18392;DHT22;9322;50.932;5.318;2023-05-14T14:02:11;24.40;1.40
18392;DHT22;9322;50.932;5.318;2023-05-14T14:04:37;24.60;1.40
18392;DHT22;9322;50.932;5.318;2023-05-14T14:07:03;24.50;1.40
18392;DHT22;9322;50.932;5.318;2023-05-14T14:09:28;24.50;1.40
18392;DHT22;9322;50.932;5.318;2023-05-14T14:12:00;24.50;1.40
18392;DHT22;9322;50.932;5.318;2023-05-14T14:14:27;24.60;1.40
18392;DHT22;9322;50.932;5.318;2023-05-14T14:16:52;24.30;1.40
18392;DHT22;9322;50.932;5.318;2023-05-14T14:19:18;24.10;1.40
18392;DHT22;9322;50.932;5.318;2023-05-14T14:21:44;24.30;1.40
18392;DHT22;9322;50.932;5.318;2023-05-14T14:24:09;24.20;1.40
18392;DHT22;9322;50.932;5.318;2023-05-14T14:26:35;24.30;1.40
18392;DHT22;9322;50.932;5.318;2023-05-14T14:29:01;24.40;1.40
18392;DHT22;9322;50.932;5.318;2023-05-14T14:31:26;24.80;1.40
18392;DHT22;9322;50.932;5.318;2023-05-14T14:33:52;24.90;1.40
18392;DHT22;9322;50.932;5.318;2023-05-14T14:36:18;24.80;1.40
18392;DHT22;9322;50.932;5.318;2023-05-14T14:38:43;25.00;1.40
18392;DHT22;9322;50.932;5.318;2023-05-14T14:41:09;24.60;1.40
18392;DHT22;9322;50.932;5.318;2023-05-14T14:43:40;24.90;1.40
18392;DHT22;9322;50.932;5.318;2023-05-14T14:46:05;25.40;1.40
18392;DHT22;9322;50.932;5.318;2023-05-14T14:48:34;26.00;1.40
18392;DHT22;9322;50.932;5.318;2023-05-14T14:51:05;25.80;1.40
18392;DHT22;9322;50.932;5.318;2023-05-14T14:53:31;25.70;1.40
18392;DHT22;9322;50.932;5.318;2023-05-14T14:55:57;25.50;1.40
18392;DHT22;9322;50.932;5.318;2023-05-14T14:58:25;25.40;1.40
18392;DHT22;9322;50.932;5.318;2023-05-14T15:00:53;25.20;1.40
18392;DHT22;9322;50.932;5.318;2023-05-14T15:03:19;25.50;1.40
18392;DHT22;9322;50.932;5.318;2023-05-14T15:05:45;25.70;1.40
18392;DHT22;9322;50.932;5.318;2023-05-14T15:08:11;26.10;1.40
18392;DHT22;9322;50.932;5.318;2023-05-14T15:10:37;25.90;1.40
18392;DHT22;9322;50.932;5.318;2023-05-14T15:13:04;25.90;1.40
18392;DHT22;9322;50.932;5.318;2023-05-14T15:15:33;25.40;1.40
18392;DHT22;9322;50.932;5.318;2023-05-14T15:17:59;25.60;1.40
18392;DHT22;9322;50.932;5.318;2023-05-14T15:20:25;25.80;1.40
18392;DHT22;9322;50.932;5.318;2023-05-14T15:22:51;26.10;1.40
18392;DHT22;9322;50.932;5.318;2023-05-14T15:25:19;25.80;1.40
18392;DHT22;9322;50.932;5.318;2023-05-14T15:27:45;26.20;1.40
18392;DHT22;9322;50.932;5.318;2023-05-14T15:30:11;25.80;1.40
18392;DHT22;9322;50.932;5.318;2023-05-14T15:32:37;26.00;1.40
18392;DHT22;9322;50.932;5.318;2023-05-14T15:35:03;25.60;1.40
18392;DHT22;9322;50.932;5.318;2023-05-14T15:37:40;25.40;1.40
18392;DHT22;9322;50.932;5.318;2023-05-14T15:40:06;25.00;1.40
18392;DHT22;9322;50.932;5.318;2023-05-14T15:42:35;25.00;1.40
18392;DHT22;9322;50.932;5.318;2023-05-14T15:45:01;25.20;1.40
18392;DHT22;9322;50.932;5.318;2023-05-14T15:47:26;25.10;1.40
18392;DHT22;9322;50.932;5.318;2023-05-14T15:49:52;25.00;1.40
18392;DHT22;9322;50.932;5.318;2023-05-14T15:52:18;24.90;1.40
18392;DHT22;9322;50.932;5.318;2023-05-14T15:54:45;24.70;1.40
18392;DHT22;9322;50.932;5.318;2023-05-14T15:57:11;24.30;1.40
18392;DHT22;9322;50.932;5.318;2023-05-14T15:59:37;24.00;1.40
18392;DHT22;9322;50.932;5.318;2023-05-14T16:02:03;24.00;1.40
18392;DHT22;9322;50.932;5.318;2023-05-14T16:04:29;24.00;1.40
18392;DHT22;9322;50.932;5.318;2023-05-14T16:07:02;23.90;1.40